Terminal Aerodrome Forecast
Issued by NWS

Home | Current Version | Previous Version | Text Only | Print | Product List | Glossary On
Versions: 1 2 3 4 5 6 7 8 9 10 11 12 13 14 15
000
FTUS41 KPBZ 242300
TAFLBE
TAF
KLBE 242320Z 2500/2524 16010KT P6SM BKN040 WS015/21045KT
      TEMPO 2502/2504 23020G43KT 3SM -SHRA OVC012
     FM250400 25015G30KT P6SM -SHRA OVC015
     FM251200 24014G24KT P6SM -SHSN OVC022
     FM251800 25012G22KT P6SM BKN035=

USA.gov is the U.S. government's official web portal to all federal, state and local government web resources and services.